createdAt,value
2023-05-21T00:02:04.226Z,100403.13
2023-05-21T00:05:14.385Z,100399.56
2023-05-21T00:08:17.348Z,100401.62
2023-05-21T00:11:20.197Z,100396.09
2023-05-21T00:14:22.678Z,100406.19
2023-05-21T00:17:26.360Z,100395.44
2023-05-21T00:20:29.389Z,100398.03
2023-05-21T00:23:32.925Z,100397.03
2023-05-21T00:26:35.384Z,100391.44
2023-05-21T00:29:38.464Z,100386.09
2023-05-21T00:32:41.272Z,100386.94
2023-05-21T00:35:44.479Z,100377.72
2023-05-21T00:38:47.020Z,100377.50
2023-05-21T00:41:50.176Z,100384.03
2023-05-21T00:44:54.169Z,100380.22
2023-05-21T00:47:57.127Z,100377.53
2023-05-21T00:50:59.809Z,100377.62
2023-05-21T00:54:02.921Z,100378.63
2023-05-21T00:57:05.973Z,100372.44
2023-05-21T01:00:10.869Z,100377.03
2023-05-21T01:03:13.969Z,100373.47
2023-05-21T01:06:16.932Z,100371.56
2023-05-21T01:09:20.005Z,100367.03
2023-05-21T01:12:23.580Z,100370.72
2023-05-21T01:15:26.168Z,100364.03
2023-05-21T01:18:29.886Z,100361.25
2023-05-21T01:21:36.098Z,100357.66
2023-05-21T01:24:39.017Z,100369.34
2023-05-21T01:27:41.640Z,100366.94
2023-05-21T01:30:45.549Z,100363.38
2023-05-21T01:33:50.575Z,100362.63
2023-05-21T01:37:01.057Z,100356.31
2023-05-21T01:40:40.788Z,100365.53
2023-05-21T01:43:45.729Z,100360.47
2023-05-21T01:46:49.574Z,100360.47
2023-05-21T01:49:52.592Z,100362.37
2023-05-21T01:53:01.221Z,100354.28
2023-05-21T01:56:04.896Z,100356.25
2023-05-21T01:59:07.435Z,100354.50
2023-05-21T02:02:10.401Z,100351.00
2023-05-21T02:05:13.617Z,100360.06
2023-05-21T02:08:16.296Z,100351.84
2023-05-21T02:11:19.076Z,100343.09
2023-05-21T02:14:21.944Z,100350.69
2023-05-21T02:17:24.768Z,100353.66
2023-05-21T02:20:28.063Z,100352.13
2023-05-21T02:23:30.876Z,100351.38
2023-05-21T02:26:33.413Z,100344.41
2023-05-21T02:29:36.815Z,100346.41
2023-05-21T02:32:43.141Z,100336.66
2023-05-21T02:35:46.125Z,100334.09
2023-05-21T02:38:49.165Z,100340.47
2023-05-21T02:41:51.970Z,100339.56
2023-05-21T02:44:54.633Z,100336.00
2023-05-21T02:47:58.016Z,100338.00
2023-05-21T02:51:00.615Z,100338.09
2023-05-21T02:54:04.054Z,100345.41
2023-05-21T02:57:06.810Z,100333.00
2023-05-21T03:00:10.667Z,100334.97
2023-05-21T03:03:14.080Z,100338.75
2023-05-21T03:06:17.599Z,100337.91
2023-05-21T03:09:21.705Z,100332.69
2023-05-21T03:12:24.545Z,100342.69
2023-05-21T03:15:27.084Z,100334.56
2023-05-21T03:18:29.814Z,100327.31
2023-05-21T03:21:32.415Z,100332.75
2023-05-21T03:24:35.351Z,100335.56
2023-05-21T03:27:39.590Z,100338.09
2023-05-21T03:30:46.886Z,100330.81
2023-05-21T03:33:50.302Z,100335.25
2023-05-21T03:36:53.415Z,100344.41
2023-05-21T03:39:57.062Z,100336.19
2023-05-21T03:42:59.895Z,100344.34
2023-05-21T03:46:03.026Z,100344.31
2023-05-21T03:49:08.673Z,100334.47
2023-05-21T03:52:11.654Z,100339.66
2023-05-21T03:55:14.483Z,100343.13
2023-05-21T03:58:17.271Z,100348.34
2023-05-21T04:01:20.420Z,100348.19
2023-05-21T04:04:23.580Z,100343.53
2023-05-21T04:07:27.143Z,100337.94
2023-05-21T04:10:30.488Z,100314.50
2023-05-21T04:13:33.105Z,100347.28
2023-05-21T04:16:38.726Z,100356.09
2023-05-21T04:19:42.133Z,100352.25
2023-05-21T04:22:45.187Z,100351.19
2023-05-21T04:25:50.896Z,100353.66
2023-05-21T04:28:55.538Z,100356.16
2023-05-21T04:31:58.115Z,100357.59
2023-05-21T04:35:01.240Z,100352.72
2023-05-21T04:38:05.846Z,100348.53
2023-05-21T04:41:12.232Z,100351.72
2023-05-21T04:44:15.376Z,100346.63
2023-05-21T04:47:18.656Z,100352.47
2023-05-21T04:50:21.267Z,100341.03
2023-05-21T04:53:26.200Z,100342.37
2023-05-21T04:56:29.588Z,100343.56
2023-05-21T04:59:32.496Z,100343.22
2023-05-21T05:02:35.600Z,100344.03
2023-05-21T05:05:38.672Z,100345.16
2023-05-21T05:08:42.141Z,100342.50
2023-05-21T05:11:45.162Z,100351.31
2023-05-21T05:14:47.708Z,100352.06
2023-05-21T05:17:50.596Z,100352.84
2023-05-21T05:20:53.168Z,100345.81
2023-05-21T05:23:56.199Z,100334.47
2023-05-21T05:26:59.112Z,100340.09
2023-05-21T05:30:01.929Z,100337.91
2023-05-21T05:33:04.721Z,100336.28
2023-05-21T05:36:07.837Z,100339.63
2023-05-21T05:39:10.860Z,100334.19
2023-05-21T05:42:13.967Z,100339.28
2023-05-21T05:45:16.475Z,100338.00
2023-05-21T05:48:19.402Z,100341.75
2023-05-21T05:51:22.026Z,100342.56
2023-05-21T05:54:24.870Z,100336.84
2023-05-21T05:57:27.339Z,100347.12
2023-05-21T06:00:30.918Z,100349.78
2023-05-21T06:03:34.447Z,100344.38
2023-05-21T06:06:42.136Z,100331.50
2023-05-21T06:09:44.922Z,100356.38
2023-05-21T06:12:47.610Z,100352.41
2023-05-21T06:15:51.579Z,100350.44
2023-05-21T06:18:54.752Z,100361.41
2023-05-21T06:21:57.676Z,100352.28
2023-05-21T06:25:01.243Z,100361.72
2023-05-21T06:28:04.230Z,100352.59
2023-05-21T06:31:07.083Z,100361.28
2023-05-21T06:34:11.785Z,100364.25
2023-05-21T06:37:14.323Z,100362.34
2023-05-21T06:40:17.324Z,100352.22
2023-05-21T06:43:21.267Z,100353.06
2023-05-21T06:46:27.213Z,100351.66
2023-05-21T06:49:29.844Z,100353.78
2023-05-21T06:52:32.841Z,100354.59
2023-05-21T06:55:36.518Z,100351.28
2023-05-21T06:58:40.936Z,100352.00
2023-05-21T07:01:44.201Z,100347.53
2023-05-21T07:04:47.244Z,100352.94
2023-05-21T07:07:49.788Z,100354.56
2023-05-21T07:10:52.643Z,100352.81
2023-05-21T07:13:58.110Z,100361.53
2023-05-21T07:17:01.067Z,100353.22
2023-05-21T07:20:06.878Z,100346.94
2023-05-21T07:23:10.400Z,100347.97
2023-05-21T07:26:13.036Z,100349.16
2023-05-21T07:29:16.036Z,100345.13
2023-05-21T07:32:18.690Z,100334.50
2023-05-21T07:35:21.732Z,100335.03
2023-05-21T07:38:24.501Z,100337.47
2023-05-21T07:41:27.339Z,100334.16
2023-05-21T07:44:30.645Z,100341.13
2023-05-21T07:47:33.869Z,100337.38
2023-05-21T07:50:37.782Z,100337.62
2023-05-21T07:53:41.083Z,100345.03
2023-05-21T07:56:44.626Z,100344.12
2023-05-21T07:59:48.396Z,100333.81
2023-05-21T08:02:52.512Z,100337.97
2023-05-21T08:05:56.633Z,100331.03
2023-05-21T08:09:00.011Z,100336.50
2023-05-21T08:12:04.000Z,100332.97
2023-05-21T08:15:07.772Z,100337.50
2023-05-21T08:18:12.325Z,100331.97
2023-05-21T08:21:17.598Z,100338.41
2023-05-21T08:24:20.855Z,100345.09
2023-05-21T08:27:24.149Z,100342.13
2023-05-21T08:30:27.317Z,100339.88
2023-05-21T08:33:29.858Z,100337.41
2023-05-21T08:36:33.034Z,100328.19
2023-05-21T08:39:36.958Z,100344.97
2023-05-21T08:42:44.014Z,100341.00
2023-05-21T08:45:54.387Z,100332.94
2023-05-21T08:48:59.175Z,100331.38
2023-05-21T08:52:02.538Z,100330.62
2023-05-21T08:55:06.154Z,100326.06
2023-05-21T08:58:10.341Z,100324.63
2023-05-21T09:01:13.429Z,100336.03
2023-05-21T09:04:21.162Z,100326.66
2023-05-21T09:07:27.468Z,100323.09
2023-05-21T09:10:37.168Z,100319.91
2023-05-21T09:13:40.767Z,100310.91
2023-05-21T09:16:48.383Z,100308.94
2023-05-21T09:20:12.514Z,100309.59
2023-05-21T09:23:17.893Z,100318.75
2023-05-21T09:26:21.765Z,100313.72
2023-05-21T09:29:26.179Z,100299.66
2023-05-21T09:32:29.041Z,100296.62
2023-05-21T09:35:31.784Z,100303.25
2023-05-21T09:38:34.963Z,100294.97
2023-05-21T09:41:38.122Z,100298.84
2023-05-21T09:44:44.147Z,100307.16
2023-05-21T09:47:48.019Z,100294.59
2023-05-21T09:50:50.810Z,100300.00
2023-05-21T09:54:01.292Z,100303.81
2023-05-21T09:57:04.306Z,100302.59
2023-05-21T10:00:09.000Z,100311.47
2023-05-21T10:03:17.110Z,100305.03
2023-05-21T10:06:21.124Z,100305.75
2023-05-21T10:09:23.809Z,100300.34
2023-05-21T10:12:28.839Z,100302.00
2023-05-21T10:15:34.664Z,100304.09
2023-05-21T10:18:38.166Z,100298.00
2023-05-21T10:21:41.152Z,100298.81
2023-05-21T10:24:45.357Z,100296.00
2023-05-21T10:27:48.516Z,100302.84
2023-05-21T10:30:52.386Z,100289.66
2023-05-21T10:33:55.797Z,100284.16
2023-05-21T10:37:01.694Z,100286.84
2023-05-21T10:40:04.621Z,100285.56
2023-05-21T10:43:45.525Z,100281.03
2023-05-21T10:47:05.321Z,100277.25
2023-05-21T10:50:08.110Z,100280.44
2023-05-21T10:53:41.878Z,100274.47
2023-05-21T10:56:49.352Z,100270.50
2023-05-21T10:59:51.987Z,100268.25
2023-05-21T11:02:55.062Z,100260.28
2023-05-21T11:05:58.056Z,100265.81
2023-05-21T11:09:13.983Z,100260.03
2023-05-21T11:12:18.021Z,100259.16
2023-05-21T11:15:20.873Z,100261.41
2023-05-21T11:18:35.742Z,100250.41
2023-05-21T11:21:40.519Z,100254.34
2023-05-21T11:24:43.102Z,100256.16
2023-05-21T11:27:47.742Z,100258.22
2023-05-21T11:31:29.831Z,100252.50
2023-05-21T11:34:50.679Z,100249.81
2023-05-21T11:37:54.000Z,100251.69
2023-05-21T11:41:02.094Z,100240.25
2023-05-21T11:44:08.807Z,100243.53
2023-05-21T11:47:18.450Z,100253.50
2023-05-21T11:50:21.108Z,100251.13
2023-05-21T11:53:23.940Z,100224.56
2023-05-21T11:56:26.857Z,100250.44
2023-05-21T11:59:29.919Z,100241.84
2023-05-21T12:02:33.114Z,100238.50
2023-05-21T12:05:48.841Z,100225.81
2023-05-21T12:08:52.533Z,100228.28
2023-05-21T12:11:55.539Z,100227.97
2023-05-21T12:14:58.420Z,100222.19
2023-05-21T12:18:01.368Z,100228.03
2023-05-21T12:21:04.896Z,100225.75
2023-05-21T12:24:07.766Z,100221.09
2023-05-21T12:27:12.913Z,100215.34
2023-05-21T12:30:15.881Z,100224.94
2023-05-21T12:33:18.928Z,100224.47
2023-05-21T12:36:30.425Z,100220.25
2023-05-21T12:39:37.674Z,100216.00
2023-05-21T12:42:40.687Z,100217.06
2023-05-21T12:45:43.295Z,100211.94
2023-05-21T12:48:51.502Z,100206.22
2023-05-21T12:51:56.725Z,100206.63
2023-05-21T12:55:01.218Z,100203.88
2023-05-21T12:58:05.629Z,100194.44
2023-05-21T13:01:12.082Z,100192.53
2023-05-21T13:04:15.386Z,100197.09
2023-05-21T13:07:18.468Z,100173.53
2023-05-21T13:10:21.448Z,100182.19
2023-05-21T13:13:24.239Z,100175.31
2023-05-21T13:16:27.083Z,100170.84
2023-05-21T13:19:29.879Z,100167.72
2023-05-21T13:22:32.794Z,100167.16
2023-05-21T13:25:35.314Z,100171.41
2023-05-21T13:28:38.082Z,100165.56
2023-05-21T13:31:44.175Z,100165.06
2023-05-21T13:34:48.005Z,100150.38
2023-05-21T13:37:51.517Z,100151.41
2023-05-21T13:40:55.064Z,100146.50
2023-05-21T13:43:58.437Z,100150.78
2023-05-21T13:47:01.481Z,100162.97
2023-05-21T13:50:04.316Z,100151.41
2023-05-21T13:53:08.030Z,100157.09
2023-05-21T13:56:10.942Z,100149.81
2023-05-21T13:59:13.764Z,100146.53
2023-05-21T14:02:16.609Z,100149.66
2023-05-21T14:05:19.544Z,100143.62
2023-05-21T14:08:23.668Z,100149.28
2023-05-21T14:11:27.713Z,100125.66
2023-05-21T14:14:30.238Z,100137.59
2023-05-21T14:17:33.075Z,100135.72
2023-05-21T14:20:36.547Z,100123.16
2023-05-21T14:23:39.292Z,100128.19
2023-05-21T14:26:41.957Z,100118.16
2023-05-21T14:29:44.769Z,100124.56
2023-05-21T14:32:47.241Z,100119.16
2023-05-21T14:35:50.040Z,100116.25
2023-05-21T14:38:52.562Z,100107.09
2023-05-21T14:41:55.348Z,100088.78
2023-05-21T14:48:03.214Z,100100.31
2023-05-21T14:51:05.891Z,100095.56
2023-05-21T14:54:08.737Z,100105.72
2023-05-21T15:00:20.014Z,100101.31
2023-05-21T15:03:22.688Z,100102.19
2023-05-21T15:06:25.658Z,100103.25
2023-05-21T15:09:28.187Z,100103.62
2023-05-21T15:12:30.998Z,100107.03
2023-05-21T15:15:33.757Z,100100.12
2023-05-21T15:18:36.680Z,100097.87
2023-05-21T15:21:39.341Z,100093.03
2023-05-21T15:24:42.207Z,100093.78
2023-05-21T15:27:44.907Z,100096.03
2023-05-21T15:30:47.661Z,100104.81
2023-05-21T15:33:50.229Z,100095.19
2023-05-21T15:36:52.954Z,100102.13
2023-05-21T15:39:55.495Z,100102.72
2023-05-21T15:42:58.273Z,100103.69
2023-05-21T15:46:00.887Z,100105.56
2023-05-21T15:49:03.649Z,100103.31
2023-05-21T15:52:06.762Z,100102.56
2023-05-21T15:55:09.904Z,100095.53
2023-05-21T15:58:12.605Z,100100.16
2023-05-21T16:01:15.495Z,100098.22
2023-05-21T16:04:20.328Z,100102.22
2023-05-21T16:07:23.686Z,100100.09
2023-05-21T16:10:26.512Z,100104.16
2023-05-21T16:13:28.956Z,100115.13
2023-05-21T16:16:31.928Z,100118.75
2023-05-21T16:19:34.409Z,100112.41
2023-05-21T16:22:37.227Z,100115.09
2023-05-21T16:25:40.147Z,100110.91
2023-05-21T16:28:43.120Z,100111.25
2023-05-21T16:31:45.568Z,100107.53
2023-05-21T16:34:48.388Z,100107.88
2023-05-21T16:37:50.815Z,100117.59
2023-05-21T16:40:53.622Z,100113.97
2023-05-21T16:43:56.263Z,100118.81
2023-05-21T16:46:59.867Z,100110.56
2023-05-21T16:50:02.453Z,100102.53
2023-05-21T16:53:06.858Z,100110.66
2023-05-21T16:56:09.315Z,100113.53
2023-05-21T16:59:13.620Z,100097.34
2023-05-21T17:02:16.151Z,100100.56
2023-05-21T17:05:19.012Z,100096.25
2023-05-21T17:08:21.492Z,100096.38
2023-05-21T17:11:24.287Z,100097.69
2023-05-21T17:14:34.140Z,100094.06
2023-05-21T17:17:37.830Z,100101.81
2023-05-21T17:20:40.463Z,100094.75
2023-05-21T17:23:43.276Z,100085.19
2023-05-21T17:26:45.759Z,100095.53
2023-05-21T17:29:48.660Z,100089.59
2023-05-21T17:32:51.192Z,100089.47
2023-05-21T17:35:56.442Z,100094.72
2023-05-21T17:38:59.495Z,100091.75
2023-05-21T17:42:02.348Z,100084.59
2023-05-21T17:45:06.109Z,100089.75
2023-05-21T17:48:08.994Z,100094.03
2023-05-21T17:51:13.520Z,100090.16
2023-05-21T17:54:16.498Z,100096.69
2023-05-21T17:57:20.277Z,100094.31
2023-05-21T18:00:23.183Z,100094.16
2023-05-21T18:03:26.003Z,100099.59
2023-05-21T18:06:29.085Z,100103.59
2023-05-21T18:09:31.808Z,100109.50
2023-05-21T18:12:35.043Z,100109.84
2023-05-21T18:15:38.013Z,100102.53
2023-05-21T18:18:41.678Z,100102.31
2023-05-21T18:21:44.706Z,100111.81
2023-05-21T18:24:47.193Z,100111.31
2023-05-21T18:27:49.999Z,100125.78
2023-05-21T18:30:52.621Z,100131.78
2023-05-21T18:33:55.683Z,100130.75
2023-05-21T18:36:58.780Z,100122.28
2023-05-21T18:40:01.704Z,100132.63
2023-05-21T18:43:06.069Z,100133.09
2023-05-21T18:46:08.930Z,100128.53
2023-05-21T18:49:11.556Z,100133.56
2023-05-21T18:52:14.496Z,100127.75
2023-05-21T18:55:16.949Z,100135.91
2023-05-21T18:58:19.872Z,100143.78
2023-05-21T19:01:22.547Z,100137.66
2023-05-21T19:04:25.612Z,100141.06
2023-05-21T19:07:28.384Z,100142.47
2023-05-21T19:10:31.108Z,100154.53
2023-05-21T19:13:34.180Z,100160.53
2023-05-21T19:16:37.030Z,100168.00
2023-05-21T19:19:40.136Z,100173.16
2023-05-21T19:22:42.906Z,100167.41
2023-05-21T19:25:45.486Z,100169.44
2023-05-21T19:28:53.129Z,100171.84
2023-05-21T19:31:58.298Z,100173.94
2023-05-21T19:35:01.095Z,100179.87
2023-05-21T19:38:05.486Z,100179.63
2023-05-21T19:41:08.439Z,100179.19
2023-05-21T19:44:11.152Z,100188.66
2023-05-21T19:47:13.984Z,100182.94
2023-05-21T19:50:16.496Z,100189.75
2023-05-21T19:53:19.283Z,100183.66
2023-05-21T19:56:22.018Z,100176.88
2023-05-21T19:59:24.797Z,100183.72
2023-05-21T20:02:28.804Z,100190.50
2023-05-21T20:05:31.608Z,100177.28
2023-05-21T20:08:34.446Z,100188.41
2023-05-21T20:11:37.236Z,100179.69
2023-05-21T20:14:39.717Z,100185.63
2023-05-21T20:17:44.220Z,100185.38
2023-05-21T20:20:46.894Z,100185.44
2023-05-21T20:23:50.177Z,100181.97
2023-05-21T20:26:54.928Z,100169.66
2023-05-21T20:29:57.706Z,100180.16
2023-05-21T20:33:02.041Z,100175.78
2023-05-21T20:36:04.953Z,100173.34
2023-05-21T20:39:09.217Z,100173.75
2023-05-21T20:42:14.979Z,100175.78
2023-05-21T20:45:17.582Z,100176.03
2023-05-21T20:48:20.299Z,100178.91
2023-05-21T20:51:22.738Z,100185.22
2023-05-21T20:54:26.910Z,100179.09
2023-05-21T20:57:29.640Z,100178.28
2023-05-21T21:00:33.399Z,100185.97
2023-05-21T21:03:36.932Z,100183.47
2023-05-21T21:06:40.399Z,100182.75
2023-05-21T21:09:42.958Z,100181.81
2023-05-21T21:12:45.776Z,100182.56
2023-05-21T21:15:48.294Z,100176.25
2023-05-21T21:18:51.226Z,100174.47
2023-05-21T21:21:53.754Z,100181.81
2023-05-21T21:24:56.528Z,100182.81
2023-05-21T21:27:58.986Z,100178.59
2023-05-21T21:31:01.758Z,100179.53
2023-05-21T21:34:04.356Z,100181.56
2023-05-21T21:37:07.276Z,100178.16
2023-05-21T21:40:09.956Z,100179.28
2023-05-21T21:43:12.751Z,100181.12
2023-05-21T21:46:15.631Z,100176.69
2023-05-21T21:49:18.507Z,100176.25
2023-05-21T21:52:21.088Z,100176.37
2023-05-21T21:55:23.866Z,100178.31
2023-05-21T21:58:26.395Z,100148.25
2023-05-21T22:01:29.788Z,100174.00
2023-05-21T22:04:32.702Z,100165.91
2023-05-21T22:07:35.596Z,100167.75
2023-05-21T22:10:38.735Z,100169.81
2023-05-21T22:13:44.300Z,100167.47
2023-05-21T22:16:53.146Z,100172.09
2023-05-21T22:19:56.168Z,100170.38
2023-05-21T22:22:59.750Z,100169.59
2023-05-21T22:26:02.273Z,100165.13
2023-05-21T22:29:05.032Z,100162.41
2023-05-21T22:32:07.538Z,100167.13
2023-05-21T22:35:10.402Z,100171.56
2023-05-21T22:38:12.931Z,100162.13
2023-05-21T22:41:15.746Z,100167.34
2023-05-21T22:44:18.285Z,100168.47
2023-05-21T22:47:23.820Z,100165.75
2023-05-21T22:50:29.103Z,100175.00
2023-05-21T22:53:32.374Z,100161.59
2023-05-21T22:56:34.898Z,100182.22
2023-05-21T22:59:37.650Z,100167.62
2023-05-21T23:02:40.226Z,100175.78
2023-05-21T23:05:43.270Z,100165.91
2023-05-21T23:08:45.902Z,100166.91
2023-05-21T23:11:48.672Z,100179.63
2023-05-21T23:14:51.194Z,100177.78
2023-05-21T23:17:53.994Z,100170.88
2023-05-21T23:20:57.193Z,100172.69
2023-05-21T23:24:00.092Z,100171.03
2023-05-21T23:27:03.094Z,100171.34
2023-05-21T23:30:06.518Z,100168.63
2023-05-21T23:33:09.873Z,100166.66
2023-05-21T23:36:12.784Z,100156.09
2023-05-21T23:39:15.695Z,100153.78
2023-05-21T23:42:18.839Z,100160.31
2023-05-21T23:45:21.441Z,100155.87
2023-05-21T23:48:24.383Z,100164.91
2023-05-21T23:51:27.130Z,100159.53
2023-05-21T23:54:29.875Z,100159.53
2023-05-21T23:57:32.379Z,100166.84
